map of KJA home
Great Circle Mapper logo
KJA - Airport
Location
City:  Krasnoyarsk, Krasnoyarskiy, Russian Federation (Russia)
Name:Yemelyanovo International Airport
ICAO / IATA:UNKL / KJA

Details
Type:Airport (Aerodrome, Airfield)
Use:Public/Civil, International (customs port of entry)
Latitude:5610'23"N (56.173056)
Longitude:9229'36"E (92.493333)
Elevation:942 ft (287 m)
Variation:4.22E (WMM2015 magnetic declination)
-0.04 annual change
Runways:1
Longest:12139 × 197 ft (3700 × 60 m), paved

Time
Time Zone:UTC+7 (DST+8)

Weather
METAR:UNKL 280730Z 28004MPS 9999 SCT030CB 15/04 Q1010 R29/120160 NOSIG RMK QFE732
TAF:UNKL 280450Z 2806/2906 21005MPS 9999 SCT025CB
TEMPO 2806/2812 24012MPS 3000 -TSRA
TEMPO 2812/2824 3000 -SHRA

Related Locations
Nearby:
Farthest:PNT: 11751 mi / 18912 km
Puerto Natales [Teniente Julio Gallardo], MA, CL

Find:

   beyond  
but within

Other Information
Maps:
NOTAMs:
Links:
Sources:

  
flag of Russian Federation (Russia)
flag of Krasnoyarskiy
  

Sectional Chart

Flight Planning
at skyvector.com

Satellite Image

Google Maps Satellite View

 

Copyright © 2004-2015 Karl L. Swartz. All rights reserved.
The Great Circle Mapper name and logo are trademarks of the Great Circle Mapper.
All other trademarks mentioned herein belong to their respective owners.
Please see credits for attibutions and further copyright information.

  Follow gcmap on Facebook Follow gcmap on Twitter Follow gcmap on Google+

hCard Microformat

Geo Microformat